Latest Weather Observations for Tidbinbilla

IDN60901

Issued at 4:21 am EST Monday 6 April 2020 (issued every 10 minutes, with the page automatically refreshed every 10 minutes)

About weather observations | Map of Canberra area stations | Latest observations for Canberra area | Other Formats
Station Details ID: 250069 Name: TIDBINBILLA (PCS) Lat: -35.46 Lon: 148.94 Height: 883.0 m

Portable automatic weather stations (PAWS) are operated by other organisations, such as Fire and Emergency Services, and are included here by agreement. Portable stations may be deployed to a location for a short period and their location may be subject to change without notice. Wind observations from these stations are provided from heights of either three (3) or ten (10) metres above ground level (AGL).

Data from the previous 72 hours. | See also: Recent months for locations in Aust Capital Territory
Date/Time
EST
Temp
°C
App
Temp
°C
Dew
Point
°C
Rel
Hum
%
Delta-T
°C
Wind Press
QNH
hPa
Press
MSL
hPa
Rain since
9am
mm
Dir  Spd
km/h
Gust
km/h
Spd
kts
Gust
kts
06/04:10am 8.9 5.8 8.9 100 0.0 NNE 15 19 8 10 1017.5 - 2.0
06/04:00am 8.9 5.8 8.9 100 0.0 NNE 15 19 8 10 1017.5 - 2.0
06/03:50am 9.0 5.9 8.9 99 0.1 NNE 15 17 8 9 1017.4 - 2.0
06/03:40am 9.0 6.7 8.9 99 0.1 NNE 11 15 6 8 1017.3 - 2.0
06/03:30am 8.9 6.2 8.9 100 0.0 NNE 13 15 7 8 1017.4 - 2.0
06/03:20am 8.9 5.8 8.9 100 0.0 NNE 15 19 8 10 1017.3 - 2.0
06/03:10am 8.9 6.2 8.9 100 0.0 NNE 13 15 7 8 1017.3 - 1.8
06/03:00am 8.9 6.2 8.9 100 0.0 NNE 13 17 7 9 1017.3 - 1.8
06/02:50am 8.8 5.3 8.8 100 0.0 NNE 17 19 9 10 1017.4 - 1.6
06/02:40am 8.8 5.7 8.8 100 0.0 NNE 15 17 8 9 1017.4 - 1.6
06/02:30am 8.8 5.7 8.8 100 0.0 NNE 15 17 8 9 1017.3 - 1.6
06/02:20am 8.8 6.1 8.8 100 0.0 N 13 17 7 9 1017.3 - 1.4
06/02:10am 8.8 5.7 8.8 100 0.0 NNE 15 19 8 10 1017.3 - 1.4
06/02:00am 8.8 5.7 8.7 99 0.1 NNE 15 19 8 10 1017.3 - 1.2
06/01:50am 8.7 5.6 8.7 100 0.0 NNE 15 19 8 10 1017.2 - 1.2
06/01:40am 8.7 5.6 8.7 100 0.0 NNE 15 19 8 10 1017.3 - 1.2
06/01:30am 8.7 5.9 8.6 99 0.1 NNE 13 13 7 7 1017.3 - 1.0
06/01:20am 8.7 5.9 8.6 99 0.1 NE 13 13 7 7 1017.4 - 1.0
06/01:10am 8.7 6.3 8.6 99 0.1 NE 11 11 6 6 1017.4 - 1.0
06/01:00am 8.7 6.7 8.5 99 0.1 NE 9 11 5 6 1017.3 - 1.0
06/12:50am 8.7 7.0 8.5 99 0.1 NE 7 9 4 5 1017.4 - 1.0
06/12:40am 8.8 7.1 8.5 98 0.2 ENE 7 9 4 5 1017.3 - 0.8
06/12:30am 8.8 7.7 8.4 97 0.2 ENE 4 7 2 4 1017.3 - 0.8
06/12:20am 8.8 7.3 8.4 97 0.2 NNE 6 9 3 5 1017.3 - 0.8
06/12:10am 8.9 7.4 8.4 97 0.3 ENE 6 7 3 4 1017.3 - 0.6
06/12:00am 9.0 7.9 8.3 95 0.4 NE 4 6 2 3 1017.2 - 0.6
 
Date/Time
EST
Temp
°C
App
Temp
°C
Dew
Point
°C
Rel
Hum
%
Delta-T
°C
Wind Press
QNH
hPa
Press
MSL
hPa
Rain since
9am
mm
Dir  Spd
km/h
Gust
km/h
Spd
kts
Gust
kts
05/11:50pm 9.3 7.5 8.1 92 0.6 WSW 7 11 4 6 1017.1 - 0.6
05/11:40pm 9.2 7.4 8.1 93 0.6 SW 7 11 4 6 1017.1 - 0.4
05/11:30pm 9.3 6.8 8.1 92 0.6 SW 11 15 6 8 1017.1 - 0.4
05/11:20pm 9.2 7.0 8.0 92 0.6 SW 9 13 5 7 1017.0 - 0.4
05/11:10pm 9.2 5.8 7.7 90 0.8 WSW 15 19 8 10 1017.1 - 0.4
05/11:00pm 8.9 5.9 7.9 93 0.5 SW 13 20 7 11 1017.1 - 0.4
05/10:50pm 8.8 6.3 8.1 95 0.4 SW 11 15 6 8 1017.1 - 0.4
05/10:40pm 8.9 6.0 8.1 95 0.4 SW 13 15 7 8 1017.1 - 0.4
05/10:30pm 8.9 5.6 7.9 93 0.5 SW 15 19 8 10 1017.1 - 0.4
05/10:20pm 8.9 5.6 7.9 93 0.5 SW 15 20 8 11 1017.0 - 0.2
05/10:10pm 8.9 4.7 7.6 91 0.6 SW 19 22 10 12 1016.9 - 0.2
05/10:00pm 9.0 5.3 7.8 92 0.6 SW 17 22 9 12 1016.9 - 0.2
05/09:50pm 9.1 4.9 7.4 89 0.8 WSW 19 24 10 13 1016.8 - 0.2
05/09:40pm 9.0 5.5 7.3 89 0.8 SW 15 22 8 12 1016.7 - 0.2
05/09:30pm 9.0 5.9 7.4 90 0.8 WSW 13 17 7 9 1016.9 - 0.2
05/09:20pm 9.1 4.9 7.4 89 0.8 WSW 19 30 10 16 1016.7 - 0.2
05/09:10pm 9.0 5.1 7.1 88 0.9 WSW 17 22 9 12 1016.7 - 0.2
05/09:00pm 8.9 5.8 7.2 89 0.8 WSW 13 19 7 10 1016.6 - 0.0
05/08:50pm 8.9 5.8 7.3 90 0.8 WSW 13 15 7 8 1016.6 - 0.0
05/08:40pm 8.9 5.4 7.2 89 0.8 SW 15 20 8 11 1016.6 - 0.0
05/08:30pm 8.8 5.7 7.1 89 0.8 WSW 13 17 7 9 1016.7 - 0.0
05/08:20pm 8.8 6.5 7.4 91 0.7 WSW 9 11 5 6 1016.6 - 0.0
05/08:10pm 9.1 5.9 7.0 87 1.0 WSW 13 24 7 13 1016.6 - 0.0
05/08:00pm 9.1 5.9 6.9 86 1.1 WSW 13 24 7 13 1016.4 - 0.0
05/07:50pm 8.9 6.1 6.8 87 1.0 WSW 11 15 6 8 1016.5 - 0.0
05/07:40pm 9.0 6.6 7.1 88 0.9 W 9 11 5 6 1016.4 - 0.0
05/07:30pm 9.0 6.5 6.7 85 1.1 W 9 13 5 7 1016.3 - 0.0
05/07:20pm 9.0 6.9 6.5 84 1.2 W 7 11 4 6 1016.3 - 0.0
05/07:10pm 8.8 6.3 6.7 87 1.0 W 9 15 5 8 1016.2 - 0.0
05/07:00pm 8.5 6.7 7.0 90 0.7 WSW 6 7 3 4 1016.2 - 0.0
05/06:50pm 8.8 6.0 6.8 87 1.0 WNW 11 19 6 10 1016.2 - 0.0
05/06:40pm 8.6 6.1 6.7 88 0.9 W 9 15 5 8 1016.1 - 0.0
05/06:30pm 8.5 6.4 6.6 88 0.9 W 7 11 4 6 1015.8 - 0.0
05/06:20pm 8.6 5.7 6.7 88 0.9 WSW 11 15 6 8 1015.8 - 0.0
05/06:10pm 8.7 5.4 6.3 85 1.2 WSW 13 17 7 9 1015.6 - 0.0
05/06:00pm 8.7 5.0 6.5 86 1.1 W 15 19 8 10 1015.6 - 0.0
05/05:50pm 8.5 6.4 6.7 88 0.9 W 7 11 4 6 1015.6 - 0.0
05/05:40pm 8.5 6.4 6.6 88 0.9 WSW 7 9 4 5 1015.4 - 0.0
05/05:30pm 8.7 5.4 6.4 85 1.1 W 13 19 7 10 1015.4 - 0.0
05/05:20pm 8.5 5.2 6.4 87 1.0 WSW 13 19 7 10 1015.3 - 0.0
05/05:10pm 8.5 5.3 6.8 89 0.8 W 13 19 7 10 1015.2 - 0.0
05/05:00pm 8.5 6.0 6.6 88 0.9 W 9 11 5 6 1015.0 - 0.0
05/04:50pm 8.5 6.1 6.8 89 0.8 W 9 11 5 6 1014.9 - 0.0
05/04:40pm 8.5 6.1 6.8 89 0.8 W 9 11 5 6 1014.8 - 0.0
05/04:30pm 8.6 4.9 6.2 85 1.2 W 15 19 8 10 1014.9 - 0.0
05/04:20pm 8.6 6.1 6.6 87 1.0 WSW 9 13 5 7 1014.7 - 0.0
05/04:10pm 8.7 5.7 6.2 84 1.2 W 11 13 6 7 1014.7 - 0.0
05/04:00pm 8.8 6.2 6.3 84 1.2 WSW 9 13 5 7 1014.5 - 0.0
05/03:50pm 8.8 6.2 6.2 84 1.3 WSW 9 13 5 7 1014.4 - 0.0
05/03:40pm 8.7 4.9 5.6 81 1.5 WSW 15 19 8 10 1014.4 - 0.0
05/03:30pm 8.6 5.6 6.0 84 1.3 WSW 11 15 6 8 1014.4 - 0.0
05/03:20pm 8.6 6.0 6.0 84 1.3 WSW 9 19 5 10 1014.4 - 0.0
05/03:10pm 8.6 5.1 5.6 81 1.4 WSW 13 19 7 10 1014.5 - 0.0
05/03:00pm 8.6 5.5 5.7 82 1.4 WSW 11 17 6 9 1014.5 - 0.0
05/02:50pm 8.6 3.7 5.3 80 1.6 WSW 20 28 11 15 1014.5 - 0.0
05/02:40pm 8.9 3.2 5.1 77 1.8 SW 24 33 13 18 1014.2 - 0.0
05/02:30pm 9.4 4.4 4.8 73 2.2 WSW 20 30 11 16 1014.4 - 0.0
05/02:20pm 9.7 6.1 4.9 72 2.3 WSW 13 19 7 10 1014.3 - 0.0
05/02:10pm 9.9 4.5 4.3 68 2.6 WSW 22 32 12 17 1014.2 - 0.0
05/02:00pm 10.3 5.9 4.6 68 2.7 WSW 17 24 9 13 1014.1 - 0.0
05/01:50pm 10.3 5.4 4.2 66 2.9 WSW 19 30 10 16 1014.0 - 0.0
05/01:40pm 10.0 3.5 4.5 68 2.6 WSW 28 37 15 20 1014.1 - 0.0
05/01:30pm 10.1 4.6 4.0 66 2.8 WSW 22 35 12 19 1014.1 - 0.0
05/01:20pm 10.5 4.6 4.1 64 3.0 WSW 24 33 13 18 1013.7 - 0.0
05/01:10pm 10.0 4.5 4.0 66 2.8 WSW 22 32 12 17 1014.3 - 0.0
05/01:00pm 10.3 4.5 4.2 66 2.9 WSW 24 30 13 16 1014.3 - 0.0
05/12:50pm 9.9 4.4 3.9 66 2.8 WSW 22 33 12 18 1014.3 - 0.0
05/12:40pm 10.1 3.1 3.9 65 2.9 SW 30 39 16 21 1014.3 - 0.0
05/12:30pm 10.2 3.9 3.5 63 3.1 WSW 26 41 14 22 1014.2 - 0.0
05/12:20pm 9.7 2.9 3.3 64 2.9 WSW 28 37 15 20 1014.0 - 0.0
05/12:10pm 9.8 2.2 3.8 66 2.8 WSW 33 46 18 25 1014.3 - 0.0
05/12:00pm 10.0 3.4 4.3 67 2.7 WSW 28 35 15 19 1014.4 - 0.0
05/11:50am 10.6 3.9 3.4 61 3.3 SW 28 41 15 22 1014.4 - 0.0
05/11:40am 10.8 4.6 4.2 64 3.1 WSW 26 35 14 19 1014.4 - 0.0
05/11:30am 10.5 4.1 3.3 61 3.3 SW 26 33 14 18 1014.5 - 0.0
05/11:20am 10.6 3.5 3.8 63 3.2 WSW 30 35 16 19 1014.6 - 0.0
05/11:10am 10.3 2.8 3.5 62 3.1 SW 32 37 17 20 1014.5 - 0.0
05/11:00am 10.2 3.1 3.5 63 3.1 WSW 30 41 16 22 1014.5 - 0.0
05/10:50am 10.2 3.9 3.5 63 3.1 SW 26 33 14 18 1014.6 - 0.0
05/10:40am 10.1 3.4 3.7 64 3.0 WSW 28 33 15 18 1014.7 - 0.0
05/10:30am 10.6 5.0 3.3 60 3.4 WSW 22 30 12 16 1014.5 - 0.0
05/10:20am 10.1 4.4 3.0 61 3.2 WSW 22 30 12 16 1014.6 - 0.0
05/10:10am 9.7 2.8 2.8 62 3.1 SW 28 37 15 20 1014.6 - 0.0
05/10:00am 9.8 3.6 1.9 58 3.5 WSW 24 35 13 19 1014.4 - 0.0
05/09:50am 9.7 3.4 1.8 58 3.5 WSW 24 33 13 18 1014.5 - 0.0
05/09:40am 9.4 3.2 1.9 59 3.3 WSW 24 32 13 17 1014.6 - 0.0
05/09:30am 9.7 4.5 2.2 59 3.3 WSW 19 26 10 14 1014.4 - 0.0
05/09:20am 9.0 3.1 1.8 60 3.2 WSW 22 32 12 17 1014.7 - 0.0
05/09:10am 8.8 2.9 1.6 60 3.1 SW 22 28 12 15 1014.7 - 0.0
05/09:00am 8.6 1.9 1.2 59 3.2 SW 26 35 14 19 1014.5 - 3.0
05/08:50am 8.4 1.7 1.3 61 3.1 WSW 26 33 14 18 1014.3 - 3.0
05/08:40am 8.3 1.5 1.1 60 3.1 SW 26 33 14 18 1014.3 - 3.0
05/08:30am 8.2 2.2 0.9 60 3.1 WSW 22 32 12 17 1014.2 - 3.0
05/08:20am 8.0 2.0 0.9 61 3.0 WSW 22 32 12 17 1014.0 - 3.0
05/08:10am 7.9 1.9 1.3 63 2.8 WSW 22 28 12 15 1013.8 - 3.0
05/08:00am 7.7 0.1 0.7 61 3.0 WSW 30 35 16 19 1013.7 - 3.0
05/07:50am 7.7 1.3 0.9 62 2.9 WSW 24 35 13 19 1013.8 - 3.0
05/07:40am 7.4 1.1 1.5 66 2.5 WSW 24 33 13 18 1013.7 - 3.0
05/07:30am 7.1 1.5 1.5 67 2.4 WSW 20 26 11 14 1013.6 - 3.0
05/07:20am 7.2 0.4 0.8 64 2.7 SW 26 39 14 21 1013.4 - 3.0
05/07:10am 7.3 0.7 1.9 68 2.3 WSW 26 33 14 18 1013.2 - 3.0
05/07:00am 7.3 1.1 2.0 69 2.3 SW 24 32 13 17 1013.1 - 3.0
05/06:50am 7.3 1.8 2.0 69 2.3 WSW 20 26 11 14 1012.9 - 3.0
05/06:40am 7.2 1.8 2.5 72 2.1 WSW 20 30 11 16 1012.9 - 3.0
05/06:30am 7.2 2.0 3.3 76 1.7 WSW 20 33 11 18 1012.7 - 3.0
05/06:20am 7.2 3.8 4.1 81 1.4 WSW 11 17 6 9 1012.6 - 3.0
05/06:10am 7.1 2.9 3.6 78 1.6 WSW 15 22 8 12 1012.5 - 3.0
05/06:00am 7.1 1.9 3.8 79 1.5 SW 20 24 11 13 1012.4 - 3.0
05/05:50am 7.3 3.1 3.7 78 1.6 SW 15 20 8 11 1012.3 - 3.0
05/05:40am 7.5 2.2 3.2 74 1.9 SW 20 26 11 14 1012.3 - 3.0
05/05:30am 7.6 2.3 3.0 72 2.0 SW 20 32 11 17 1012.0 - 3.0
05/05:20am 7.7 3.8 3.2 73 2.0 WSW 13 19 7 10 1012.0 - 3.0
05/05:10am 7.8 3.1 2.9 71 2.2 W 17 20 9 11 1011.8 - 3.0
05/05:00am 7.7 2.9 2.6 70 2.3 WSW 17 26 9 14 1011.6 - 3.0
05/04:50am 7.6 3.1 2.3 69 2.3 W 15 28 8 15 1011.2 - 3.0
05/04:40am 7.6 2.3 3.2 74 2.0 SW 20 33 11 18 1011.2 - 3.0
05/04:30am 7.7 2.1 3.7 76 1.8 WSW 22 28 12 15 1011.2 - 3.0
05/04:20am 7.9 2.6 2.9 70 2.2 WSW 20 28 11 15 1010.9 - 3.0
05/04:10am 8.0 2.3 2.9 70 2.3 WSW 22 33 12 18 1010.9 - 3.0
05/04:00am 7.9 2.8 3.0 71 2.2 WSW 19 33 10 18 1010.8 - 3.0
05/03:50am 7.9 3.2 3.0 71 2.2 WSW 17 26 9 14 1010.6 - 3.0
05/03:40am 8.0 2.3 2.8 70 2.3 WSW 22 35 12 19 1010.5 - 3.0
05/03:30am 8.0 1.9 3.0 71 2.2 WSW 24 39 13 21 1010.4 - 3.0
05/03:20am 7.9 3.1 2.4 68 2.4 WSW 17 28 9 15 1010.1 - 3.0
05/03:10am 8.1 1.6 2.5 68 2.5 WSW 26 32 14 17 1010.1 - 3.0
05/03:00am 8.0 0.7 2.5 68 2.4 SW 30 46 16 25 1010.0 - 3.0
05/03:50am 7.9 0.2 2.5 69 2.4 SW 32 46 17 25 1009.9 - 3.0
05/03:40am 7.8 0.1 2.3 68 2.4 SW 32 43 17 23 1009.8 - 3.0
05/03:30am 7.9 0.1 2.7 69 2.3 SW 33 46 18 25 1009.6 - 3.0
05/03:20am 7.9 0.1 2.6 69 2.3 SW 33 48 18 26 1010.0 - 3.0
05/03:10am 7.9 -0.3 2.7 69 2.3 SW 35 46 19 25 1010.1 - 3.0
05/03:00am 8.0 -0.2 2.8 70 2.3 SW 35 41 19 22 1010.0 - 3.0
05/02:50am 8.1 -0.6 2.3 67 2.6 WSW 37 48 20 26 1009.9 - 3.0
05/02:40am 8.2 -1.7 2.5 67 2.5 SW 44 56 24 30 1010.1 - 3.0
05/02:30am 8.2 0.0 2.5 67 2.5 WSW 35 46 19 25 1010.1 - 3.0
05/02:20am 8.1 -0.1 2.8 69 2.4 SW 35 50 19 27 1010.0 - 3.0
05/02:10am 8.3 -0.6 2.8 68 2.5 SW 39 54 21 29 1009.6 - 3.0
05/02:00am 8.4 -0.5 3.0 69 2.4 SW 39 56 21 30 1009.9 - 3.0
05/01:50am 8.4 -0.2 2.5 66 2.6 WSW 37 48 20 26 1009.6 - 3.0
05/01:40am 8.4 -0.5 2.9 68 2.5 WSW 39 46 21 25 1009.8 - 3.0
05/01:30am 8.2 0.2 3.8 74 2.0 WSW 35 46 19 25 1009.8 - 3.0
05/01:20am 8.2 -0.2 3.5 72 2.1 SW 37 44 20 24 1009.5 - 3.0
05/01:10am 8.1 0.4 3.5 73 2.1 WSW 33 39 18 21 1009.5 - 3.0
05/01:00am 7.8 -0.6 3.9 76 1.8 SW 37 48 20 26 1009.5 - 3.0
05/12:50am 8.1 -0.6 4.3 77 1.8 SW 39 48 21 26 1009.6 - 3.0
05/12:40am 8.0 -1.1 4.1 76 1.8 WSW 41 54 22 29 1008.7 - 3.0
05/12:30am 8.1 -0.6 4.3 77 1.8 WSW 39 48 21 26 1009.5 - 3.0
05/12:20am 8.0 0.0 3.9 75 1.9 WSW 35 48 19 26 1009.3 - 3.0
05/12:10am 8.1 -1.0 3.9 75 1.9 WSW 41 50 22 27 1009.5 - 3.0
05/12:00am 7.8 -1.7 4.0 77 1.7 WSW 43 52 23 28 1009.3 - 3.0
 
Date/Time
EST
Temp
°C
App
Temp
°C
Dew
Point
°C
Rel
Hum
%
Delta-T
°C
Wind Press
QNH
hPa
Press
MSL
hPa
Rain since
9am
mm
Dir  Spd
km/h
Gust
km/h
Spd
kts
Gust
kts
04/11:50pm 7.9 -0.8 4.1 77 1.7 WSW 39 46 21 25 1009.5 - 3.0
04/11:40pm 7.9 -0.8 4.2 77 1.7 WSW 39 46 21 25 1009.5 - 3.0
04/11:30pm 7.6 -1.4 4.4 80 1.5 WSW 41 54 22 29 1009.8 - 3.0
04/11:20pm 7.5 -0.7 4.8 83 1.3 SW 37 44 20 24 1009.6 - 2.8
04/11:10pm 7.7 0.0 5.3 85 1.1 WSW 35 41 19 22 1009.6 - 2.8
04/11:00pm 8.3 -0.3 4.8 78 1.6 SW 39 54 21 29 1009.8 - 2.8
04/10:50pm 7.9 -0.3 4.5 79 1.6 WSW 37 54 20 29 1009.6 - 2.8
04/10:40pm 7.8 -0.6 5.7 86 1.0 SW 39 44 21 24 1009.9 - 2.8
04/10:30pm 8.4 0.9 4.7 77 1.7 SW 33 44 18 24 1009.9 - 2.8
04/10:20pm 8.1 0.2 4.6 78 1.6 SW 35 46 19 25 1009.8 - 2.8
04/10:10pm 8.1 0.0 5.3 82 1.3 SW 37 50 20 27 1010.0 - 2.8
04/10:00pm 7.7 0.4 5.3 85 1.1 SW 33 39 18 21 1009.9 - 2.8
04/09:50pm 7.4 0.6 5.3 86 1.0 SW 30 44 16 24 1009.9 - 2.8
04/09:40pm 7.6 0.9 5.4 86 1.0 SW 30 37 16 20 1010.0 - 2.8
04/09:30pm 7.9 2.8 6.1 88 0.9 WSW 22 30 12 16 1009.5 - 2.4
04/09:20pm 8.1 3.4 6.0 87 1.0 WSW 20 28 11 15 1009.5 - 2.4
04/09:10pm 8.3 3.2 5.8 84 1.2 WSW 22 41 12 22 1008.9 - 2.2
04/09:00pm 9.2 2.7 4.9 74 2.0 WSW 28 32 15 17 1008.8 - 2.2
04/08:50pm 9.1 2.9 4.5 73 2.1 WSW 26 35 14 19 1008.6 - 2.2
04/08:40pm 8.9 3.9 4.6 74 2.0 WSW 20 28 11 15 1008.8 - 2.2
04/08:30pm 8.5 3.1 4.6 76 1.8 WSW 22 30 12 16 1008.6 - 2.2
04/08:20pm 8.6 2.8 4.6 76 1.9 SW 24 30 13 16 1008.6 - 2.0
04/08:10pm 8.3 2.6 4.8 78 1.6 SW 24 32 13 17 1008.3 - 2.0
04/08:00pm 8.3 1.9 5.3 81 1.4 SW 28 35 15 19 1008.3 - 2.0
04/07:50pm 8.0 1.3 5.5 84 1.2 SW 30 35 16 19 1007.9 - 2.0
04/07:40pm 8.0 0.8 5.7 85 1.1 WSW 33 46 18 25 1008.0 - 2.0
04/07:30pm 9.2 2.0 5.2 76 1.9 WSW 32 43 17 23 1007.6 - 1.8
04/07:20pm 9.1 1.8 4.6 73 2.1 WSW 32 43 17 23 1007.2 - 1.8
04/07:10pm 9.2 2.1 5.3 76 1.9 SW 32 43 17 23 1007.1 - 1.8
04/07:00pm 9.3 1.9 4.1 70 2.4 WSW 32 39 17 21 1006.7 - 1.8
04/06:50pm 9.2 3.0 4.4 72 2.2 WSW 26 32 14 17 1006.5 - 1.8
04/06:40pm 9.0 1.7 4.5 73 2.1 WSW 32 39 17 21 1006.1 - 1.8
04/06:30pm 9.5 3.6 5.9 78 1.7 WSW 26 33 14 18 1006.0 - 1.8
04/06:20pm 10.0 4.2 4.6 69 2.5 WSW 24 35 13 19 1005.9 - 1.8
04/06:10pm 9.9 5.6 5.1 72 2.3 WSW 17 22 9 12 1005.6 - 1.8
04/06:00pm 10.0 3.5 4.8 70 2.5 WSW 28 33 15 18 1005.3 - 1.8
04/05:50pm 9.9 3.5 5.1 72 2.3 W 28 35 15 19 1005.2 - 1.8
04/05:40pm 9.4 2.6 5.1 74 2.0 WSW 30 37 16 20 1005.0 - 1.8
04/05:30pm 9.6 3.8 6.4 80 1.6 WSW 26 32 14 17 1005.0 - 1.8
04/05:20pm 10.5 3.5 5.9 73 2.2 WSW 32 44 17 24 1004.8 - 1.6
04/05:10pm 10.4 5.6 5.8 73 2.2 W 20 32 11 17 1004.5 - 1.6
04/05:00pm 10.8 4.6 6.0 72 2.3 W 28 41 15 22 1004.8 - 1.6
04/04:50pm 11.0 5.1 5.8 70 2.5 WSW 26 33 14 18 1004.4 - 1.6
04/04:40pm 11.2 5.7 6.0 70 2.6 W 24 33 13 18 1004.4 - 1.6
04/04:30pm 11.3 5.8 5.7 68 2.7 W 24 35 13 19 1004.4 - 1.6
04/04:20pm 11.1 6.5 6.3 72 2.4 W 20 32 11 17 1004.2 - 1.6
04/04:10pm 11.2 5.5 6.8 74 2.2 WSW 26 32 14 17 1004.2 - 1.6
04/04:00pm 10.6 5.8 7.3 80 1.7 WSW 22 33 12 18 1004.0 - 1.6
04/03:50pm 10.3 5.4 6.8 79 1.7 WSW 22 35 12 19 1004.1 - 1.6
04/03:40pm 9.7 5.5 7.5 86 1.1 W 19 26 10 14 1003.7 - 1.6
04/03:30pm 9.8 5.7 7.7 87 1.1 WSW 19 26 10 14 1003.9 - 1.2
04/03:20pm 10.2 6.0 7.4 83 1.4 W 19 41 10 22 1003.8 - 0.8
04/03:10pm 10.3 3.8 6.6 78 1.8 W 30 41 16 22 1003.5 - 0.6
04/03:00pm 11.1 5.0 6.8 75 2.1 W 28 35 15 19 1003.4 - 0.6
04/02:50pm 13.1 7.6 5.9 61 3.6 W 24 32 13 17 1003.0 - 0.6
04/02:40pm 13.3 6.4 4.6 55 4.2 WSW 30 39 16 21 1002.8 - 0.6
04/02:30pm 13.1 6.2 4.5 56 4.1 WSW 30 39 16 21 1002.6 - 0.6
04/02:20pm 12.8 5.4 5.0 59 3.8 WSW 33 46 18 25 1002.7 - 0.6
04/02:10pm 12.4 4.6 5.0 60 3.6 W 35 43 19 23 1002.4 - 0.4
04/02:00pm 11.5 5.1 6.8 73 2.4 WSW 30 37 16 20 1002.5 - 0.4
04/01:50pm 10.7 2.6 7.0 78 1.8 W 39 52 21 28 1002.6 - 0.4
04/01:40pm 11.4 5.0 6.8 73 2.3 W 30 43 16 23 1002.1 - 0.4
04/01:30pm 12.1 5.4 5.8 65 3.1 W 30 39 16 21 1002.0 - 0.2
04/01:20pm 12.7 7.7 8.0 73 2.4 W 24 35 13 19 1002.2 - 0.2
04/01:10pm 13.0 7.0 6.9 66 3.1 WSW 28 35 15 19 1001.9 - 0.2
04/01:00pm 12.4 5.7 7.5 72 2.5 WSW 32 44 17 24 1001.9 - 0.2
04/12:50pm 13.3 7.6 6.7 64 3.3 WSW 26 35 14 19 1001.8 - 0.2
04/12:40pm 13.2 7.9 6.7 64 3.3 WSW 24 35 13 19 1001.9 - 0.2
04/12:30pm 12.8 7.2 7.0 68 2.9 WSW 26 37 14 20 1002.0 - 0.2
04/12:20pm 12.9 6.1 6.9 67 3.0 WSW 32 41 17 22 1001.6 - 0.2
04/12:10pm 12.3 5.4 6.3 67 3.0 WSW 32 44 17 24 1001.7 - 0.2
04/12:00pm 12.5 5.6 6.4 66 3.0 WSW 32 43 17 23 1002.0 - 0.2
04/11:50am 12.3 6.3 6.9 69 2.7 WSW 28 35 15 19 1001.9 - 0.2
04/11:40am 12.6 6.9 6.7 67 3.0 WSW 26 35 14 19 1001.8 - 0.2
04/11:30am 12.0 6.4 7.1 72 2.5 W 26 35 14 19 1002.2 - 0.2
04/11:20am 12.0 7.1 6.8 70 2.6 W 22 44 12 24 1002.0 - 0.2
04/11:10am 12.5 7.8 7.9 73 2.4 WSW 22 32 12 17 1001.7 - 0.2
04/11:00am 12.1 6.2 7.6 74 2.3 WSW 28 44 15 24 1001.5 - 0.2
04/10:50am 12.5 7.2 8.5 76 2.1 WSW 26 44 14 24 1001.3 - 0.2
04/10:40am 12.7 7.7 8.2 74 2.3 W 24 41 13 22 1001.1 - 0.2
04/10:30am 12.7 7.5 7.4 70 2.7 W 24 54 13 29 1000.7 - 0.2
04/10:20am 13.4 9.4 9.0 75 2.3 W 20 30 11 16 1000.8 - 0.0
04/10:10am 13.8 9.2 8.0 68 3.0 W 22 32 12 17 1000.6 - 0.0
04/10:00am 13.9 9.7 8.2 68 3.0 WSW 20 33 11 18 1000.3 - 5.6
04/09:50am 13.9 10.0 8.5 70 2.8 WSW 19 30 10 16 1000.1 - 5.6
04/09:40am 14.0 10.1 9.3 73 2.5 WSW 20 30 11 16 1000.3 - 5.6
04/09:30am 14.3 9.9 9.1 71 2.8 SW 22 28 12 15 1000.2 - 5.6
04/09:20am 14.4 11.2 8.5 67 3.1 WSW 15 26 8 14 999.8 - 5.6
04/09:10am 14.0 9.2 8.8 71 2.8 WSW 24 32 13 17 999.7 - 5.6
04/09:00am 14.0 10.8 9.9 76 2.2 WSW 17 24 9 13 999.7 - 5.6
04/08:50am 14.0 9.1 9.8 76 2.3 WSW 26 35 14 19 1000.1 - 5.6
04/08:40am 14.0 10.4 10.4 79 2.0 WSW 20 26 11 14 999.8 - 5.6
04/08:30am 13.8 10.0 9.9 77 2.1 WSW 20 32 11 17 999.5 - 5.6
04/08:20am 13.8 10.9 11.1 84 1.5 WSW 17 26 9 14 999.3 - 5.6
04/08:10am 13.6 9.8 11.2 85 1.3 WSW 22 30 12 16 999.3 - 5.6
04/08:00am 13.8 10.8 10.7 81 1.7 W 17 24 9 13 999.6 - 5.6
04/07:50am 13.7 10.2 10.3 80 1.9 NW 19 28 10 15 999.1 - 5.6
04/07:40am 13.3 9.7 10.5 83 1.5 W 20 30 11 16 - - 5.6
04/07:30am 13.4 10.1 10.8 84 1.4 W 19 26 10 14 - - 5.6
04/07:20am 13.3 9.7 10.4 82 1.6 WSW 20 32 11 17 998.5 - 5.6
04/07:10am 13.2 9.6 10.7 85 1.4 WSW 20 30 11 16 998.4 - 5.6
04/07:00am 13.0 10.5 11.0 88 1.1 W 15 22 8 12 998.4 - 5.6
04/06:50am 12.4 9.7 10.3 87 1.1 W 15 24 8 13 998.3 - 5.6
04/06:40am 11.6 10.7 11.3 98 0.2 SW 7 9 4 5 998.2 - 5.6
04/06:30am 11.8 11.1 11.4 97 0.2 WSW 6 7 3 4 997.8 - 5.6
04/06:20am 12.2 11.4 11.1 93 0.6 E 6 9 3 5 997.4 - 5.6
04/06:10am 12.4 11.7 11.4 94 0.6 NE 6 11 3 6 997.5 - 5.6
04/06:00am 12.6 12.3 11.3 92 0.7 W 4 6 2 3 997.9 - 5.6
04/05:50am 12.5 11.6 11.4 93 0.6 W 7 11 4 6 998.3 - 5.4
04/05:40am 12.3 12.1 11.8 97 0.3 NW 4 6 2 3 998.7 - 5.2
04/05:30am 12.1 11.4 11.9 99 0.1 W 7 11 4 6 998.6 - 5.2
04/05:20am 11.6 11.3 11.4 99 0.1 SSE 4 11 2 6 998.6 - 5.0
04/05:10am 11.6 11.3 11.4 99 0.1 SW 4 7 2 4 998.8 - 5.0
04/05:00am 11.7 11.4 11.4 98 0.2 ENE 4 7 2 4 - - 4.8
04/04:50am 11.7 10.5 11.5 99 0.1 ENE 9 9 5 5 998.7 - 4.6
04/04:40am 11.8 11.1 11.5 98 0.2 ENE 6 9 3 5 998.8 - 4.2
04/04:30am 11.7 11.7 11.3 97 0.2 SSE 2 4 1 2 - - 3.6
04/04:20am 11.8 11.1 11.3 97 0.3 E 6 9 3 5 999.4 - 2.6
04/04:10am 12.0 12.1 11.4 96 0.3 N 2 6 1 3 999.6 - 1.8
04/04:00am 12.1 12.2 11.5 96 0.3 E 2 4 1 2 999.4 - 1.4
04/03:50am 12.1 11.2 11.3 95 0.4 NNE 7 9 4 5 999.5 - 1.2
04/03:40am 12.1 11.8 11.6 97 0.3 ESE 4 6 2 3 999.4 - 1.2
04/03:30am 11.9 11.2 11.4 97 0.3 ENE 6 9 3 5 999.5 - 1.2
04/03:20am 11.9 11.2 11.4 97 0.3 N 6 6 3 3 1000.1 - 1.2
04/03:00am 11.6 11.6 11.3 98 0.2 WSW 2 4 1 2 1000.7 - 1.2
04/02:50am 11.6 10.8 11.2 97 0.2 S 6 6 3 3 1001.0 - 1.2
04/02:40am 11.7 11.3 11.2 97 0.3 WSW 4 4 2 2 1001.6 - 1.2
04/02:20am 11.6 11.6 11.1 97 0.3 E 2 4 1 2 1001.7 - 1.2
04/02:10am 11.5 11.3 10.6 94 0.5 S 2 4 1 2 1002.2 - 1.2
04/02:00am 11.5 10.6 10.7 95 0.4 S 6 7 3 4 1002.5 - 1.0
04/01:50am 11.6 10.8 11.0 96 0.3 S 6 9 3 5 1002.7 - 1.0
04/01:40am 11.9 11.9 11.1 95 0.4 WSW 2 6 1 3 1002.9 - 1.0
04/01:20am 12.1 11.5 10.4 89 0.9 S 4 6 2 3 1002.6 - 1.0
04/01:10am 12.1 11.1 10.2 88 1.0 S 6 6 3 3 1003.2 - 1.0
04/01:00am 12.3 11.6 10.1 86 1.2 WSW 4 4 2 2 1003.5 - 1.0
04/12:50am 12.2 11.0 9.6 84 1.4 S 6 6 3 3 1003.6 - 1.0
04/12:40am 12.0 10.9 10.0 87 1.1 SSE 6 7 3 4 1003.7 - 1.0
04/12:30am 12.0 10.7 9.9 87 1.1 S 7 7 4 4 1004.1 - 1.0
04/12:20am 12.0 10.7 9.9 87 1.1 S 7 7 4 4 1004.2 - 1.0
04/12:10am 11.9 10.6 10.0 88 1.0 S 7 9 4 5 1004.3 - 1.0
04/12:00am 11.9 10.6 9.9 87 1.1 S 7 9 4 5 1004.7 - 1.0
 
Date/Time
EST
Temp
°C
App
Temp
°C
Dew
Point
°C
Rel
Hum
%
Delta-T
°C
Wind Press
QNH
hPa
Press
MSL
hPa
Rain since
9am
mm
Dir  Spd
km/h
Gust
km/h
Spd
kts
Gust
kts
03/11:50pm 11.7 10.4 10.0 89 0.9 S 7 9 4 5 1004.9 - 1.0
03/11:40pm 11.7 10.6 10.8 94 0.5 S 7 9 4 5 1005.0 - 1.0
03/11:30pm 12.0 10.9 10.7 92 0.7 S 7 7 4 4 1005.2 - 1.0
03/11:20pm 12.0 10.7 9.8 86 1.2 SSE 7 7 4 4 1005.6 - 1.0
03/11:10pm 12.1 11.2 10.6 90 0.8 S 6 7 3 4 1005.7 - 1.0
03/11:00pm 12.1 11.4 10.2 88 1.0 S 4 4 2 2 1006.0 - 1.0
03/10:50pm 12.1 11.6 10.6 90 0.8 S 4 6 2 3 1005.9 - 1.0
03/10:40pm 12.3 12.0 10.2 87 1.1 S 2 4 1 2 1006.1 - 1.0
03/10:30pm 12.4 11.7 10.1 86 1.2 SSE 4 6 2 3 1006.2 - 1.0
03/10:20pm 12.5 11.4 10.5 88 1.1 S 7 7 4 4 1006.2 - 1.0
03/10:10pm 12.7 11.7 10.4 86 1.2 S 6 7 3 4 1006.5 - 0.8
03/10:00pm 12.5 11.5 10.3 86 1.2 S 6 7 3 4 1006.8 - 0.8
03/09:50pm 12.4 11.3 10.5 88 1.0 S 7 9 4 5 1006.8 - 0.8
03/09:40pm 12.2 11.2 11.1 93 0.6 S 7 9 4 5 1006.7 - 0.8
03/09:30pm 12.2 11.2 11.0 92 0.7 S 7 9 4 5 1007.0 - 0.8
03/09:20pm 12.1 11.2 11.4 95 0.4 SSE 7 9 4 5 1007.0 - 0.8
03/09:10pm 12.1 11.5 11.7 97 0.2 S 6 7 3 4 1007.1 - 0.8
03/09:00pm 12.3 12.5 11.7 96 0.3 W 2 4 1 2 1007.2 - 0.8
03/08:50pm 12.2 12.3 11.5 95 0.4 SSW 2 4 1 2 1007.2 - 0.8
03/08:40pm 12.2 12.4 11.7 97 0.3 S 2 4 1 2 1007.3 - 0.8
03/08:30pm 12.3 12.8 11.7 96 0.3 CALM 0 4 0 2 1007.5 - 0.8
03/08:20pm 12.5 12.3 11.7 95 0.4 W 4 6 2 3 1007.6 - 0.8
03/08:10pm 12.6 11.7 11.2 91 0.8 SE 7 11 4 6 1007.6 - 0.8
03/08:00pm 12.6 10.8 11.0 90 0.9 ESE 11 13 6 7 1007.6 - 0.8
03/07:50pm 12.4 12.5 11.5 94 0.5 E 2 7 1 4 1007.5 - 0.8
03/07:40pm 12.4 11.8 11.7 95 0.4 S 6 7 3 4 1007.6 - 0.8
03/07:30pm 12.4 11.7 11.9 97 0.3 S 7 9 4 5 1007.5 - 0.8
03/07:20pm 12.3 10.8 12.0 98 0.2 S 11 11 6 6 1007.5 - 0.8
03/07:10pm 12.4 11.8 12.2 99 0.1 S 7 9 4 5 1007.5 - 0.8
03/07:00pm 12.5 11.9 12.3 99 0.1 SSW 7 9 4 5 1007.7 - 0.8
03/06:50pm 12.7 12.7 12.3 97 0.2 S 4 6 2 3 1007.8 - 0.6
03/06:40pm 12.8 13.2 12.4 97 0.2 SSW 2 4 1 2 1007.9 - 0.6
03/06:30pm 13.0 13.4 12.6 97 0.2 S 2 4 1 2 1008.1 - 0.6
03/06:20pm 13.1 13.5 12.6 97 0.3 NW 2 4 1 2 1008.0 - 0.4
03/06:10pm 13.2 13.6 12.6 96 0.3 N 2 7 1 4 1008.0 - 0.4
03/06:00pm 13.3 13.4 12.6 95 0.4 NNW 4 7 2 4 1008.0 - 0.4
03/05:50pm 13.3 13.3 12.4 94 0.5 N 4 6 2 3 1007.9 - 0.4
03/05:40pm 13.1 12.6 12.1 94 0.6 NNE 6 9 3 5 1008.0 - 0.4
03/05:30pm 13.1 12.4 12.0 93 0.6 NE 7 9 4 5 1008.0 - 0.4
03/05:20pm 13.0 12.5 12.1 94 0.5 SE 6 9 3 5 1008.0 - 0.2
03/05:10pm 13.0 11.9 12.1 94 0.5 SSW 9 11 5 6 1008.0 - 0.2
03/05:00pm 13.2 12.6 12.4 95 0.5 SSW 7 9 4 5 1008.3 - 0.2
03/04:50pm 13.3 12.6 12.1 92 0.7 SSW 7 11 4 6 1008.6 - 0.2
03/04:40pm 13.6 13.4 11.9 89 1.0 S 4 6 2 3 1008.9 - 0.0
03/04:30pm 13.5 13.2 11.5 88 1.1 ESE 4 7 2 4 1009.0 - 0.0
03/04:20pm 13.4 12.7 11.3 87 1.2 E 6 9 3 5 1009.3 - 0.0
03/04:10pm 13.4 12.1 11.4 88 1.1 NE 9 11 5 6 1009.4 - 0.0
03/04:00pm 13.5 12.1 10.9 84 1.4 NE 9 13 5 7 1009.4 - 0.0
03/03:50pm 13.7 12.9 11.2 85 1.4 NNE 6 11 3 6 1009.4 - 0.0
03/03:40pm 13.9 11.8 11.1 83 1.6 N 13 17 7 9 1009.5 - 0.0
03/03:30pm 14.1 12.1 11.6 85 1.4 NNE 13 17 7 9 1009.4 - 0.0
03/03:20pm 15.6 15.0 11.7 77 2.2 WSW 6 15 3 8 1009.0 - 0.0
03/03:10pm 15.4 13.9 10.5 72 2.7 S 9 13 5 7 1009.2 - 0.0
03/03:00pm 15.0 13.9 10.5 74 2.5 S 7 9 4 5 1009.3 - 0.0
03/02:50pm 14.6 12.5 9.8 73 2.6 S 11 15 6 8 1009.7 - 0.0
03/02:40pm 14.3 13.6 11.5 83 1.6 S 6 7 3 4 1009.8 - 0.0
03/02:30pm 14.6 14.7 11.6 82 1.7 W 2 4 1 2 1010.1 - 0.0
03/02:20pm 14.6 14.2 9.9 73 2.6 ENE 2 4 1 2 1010.3 - 0.0
03/02:10pm 14.7 14.1 10.5 76 2.3 N 4 7 2 4 1010.6 - 0.0
03/02:00pm 14.5 13.9 10.3 76 2.3 NNE 4 7 2 4 1010.8 - 0.0
03/01:50pm 13.9 12.4 10.5 80 1.9 NE 9 13 5 7 1011.0 - 0.0
03/01:40pm 14.0 12.8 11.6 85 1.3 N 9 11 5 6 1011.2 - 0.0
03/01:30pm 14.1 13.6 10.7 80 1.9 N 4 6 2 3 1011.3 - 0.0
03/01:20pm 13.8 12.3 10.7 81 1.7 NNE 9 13 5 7 1011.3 - 0.0
03/01:10pm 14.9 13.8 10.8 76 2.3 N 7 13 4 7 1011.4 - 0.0
03/01:00pm 14.7 13.8 10.8 77 2.2 NW 6 9 3 5 1011.2 - 0.0
03/12:50pm 14.4 14.1 10.2 76 2.3 SW 2 4 1 2 1011.2 - 0.0
03/12:40pm 14.7 14.5 10.5 76 2.3 SW 2 4 1 2 1011.3 - 0.0
03/12:30pm 14.5 14.6 10.0 74 2.4 CALM 0 2 0 1 1011.6 - 0.0
03/12:20pm 14.1 13.8 8.5 69 3.0 CALM 0 2 0 1 1011.8 - 0.0
03/12:10pm 13.7 12.9 8.2 69 2.9 NNE 2 6 1 3 1012.0 - 0.0
03/12:00pm 13.4 11.8 8.7 73 2.5 NNE 7 9 4 5 1012.0 - 0.0
03/11:50am 14.0 12.8 9.5 74 2.4 N 6 7 3 4 1012.0 - 0.0
03/11:40am 13.9 12.7 9.6 75 2.3 N 6 7 3 4 1012.0 - 0.0
03/11:30am 13.5 13.1 9.8 78 2.0 ESE 2 7 1 4 1012.1 - 0.0
03/11:20am 13.3 11.8 9.0 75 2.3 N 7 11 4 6 1012.3 - 0.0
03/11:10am 13.2 12.0 9.7 79 1.9 SE 6 9 3 5 1012.2 - 0.0
03/11:00am 13.4 12.3 10.1 80 1.8 W 6 13 3 7 1012.5 - 0.0
03/10:50am 13.7 13.0 9.9 78 2.1 SSW 4 6 2 3 1012.3 - 0.0
03/10:40am 13.8 12.1 7.7 66 3.2 SW 6 9 3 5 1012.5 - 0.0
03/10:30am 13.2 12.1 8.5 73 2.5 NNW 4 6 2 3 1012.7 - 0.0
03/10:20am 13.4 12.5 9.2 76 2.2 SSW 4 6 2 3 1012.7 - 0.0
03/10:10am 14.0 12.1 6.9 62 3.6 W 6 9 3 5 1012.5 - 0.0
03/10:00am 14.0 12.0 4.2 51 4.7 SSW 4 6 2 3 1012.2 - 15.6
03/09:50am 13.8 12.0 5.4 57 4.1 SW 4 9 2 5 1012.3 - 15.6
03/09:40am 14.0 11.5 4.5 52 4.6 SW 7 15 4 8 1012.3 - 15.6
03/09:30am 13.7 10.8 4.5 54 4.5 SSW 9 11 5 6 1012.1 - 15.6
03/09:20am 13.3 11.1 6.1 61 3.6 SSW 7 11 4 6 1012.1 - 15.6
03/09:10am 12.6 9.9 5.5 62 3.5 SSW 9 13 5 7 1012.0 - 15.6
03/09:00am 11.9 9.8 8.4 79 1.8 SSW 9 15 5 8 1012.0 - 15.6
03/08:50am 11.5 10.0 6.8 73 2.4 S 4 9 2 5 1011.9 - 15.6
03/08:40am 11.1 10.0 7.0 76 2.1 S 2 7 1 4 1012.0 - 15.6
03/08:30am 11.4 10.4 7.4 76 2.0 SSW 2 7 1 4 1012.0 - 15.6
03/08:20am 11.0 9.1 4.9 66 2.9 SSW 4 6 2 3 1011.8 - 15.6
03/08:10am 11.3 9.5 7.0 75 2.2 NE 6 9 3 5 1011.8 - 15.6
03/08:00am 11.6 10.1 6.8 72 2.4 SW 4 7 2 4 1011.8 - 15.6
03/07:50am 11.8 9.4 4.5 61 3.5 S 6 9 3 5 1011.7 - 15.6
03/07:40am 12.2 10.1 4.0 57 3.9 S 4 7 2 4 1011.8 - 15.6
03/07:30am 12.3 10.5 5.5 63 3.3 SSW 4 7 2 4 1011.8 - 15.6
03/07:20am 13.3 11.1 5.1 57 4.0 SSW 6 9 3 5 1011.7 - 15.6
03/07:10am 14.0 11.5 3.7 50 4.9 NNW 6 11 3 6 1011.7 - 15.6
03/07:00am 14.3 12.1 3.4 48 5.2 WSW 4 11 2 6 1012.0 - 15.6
03/06:50am 13.8 11.3 4.5 53 4.5 S 7 9 4 5 1012.0 - 15.6
03/06:40am 13.8 11.3 3.7 50 4.8 SSE 6 9 3 5 1012.0 - 15.6
03/06:30am 14.0 11.2 3.4 49 5.0 SSE 7 11 4 6 1012.0 - 15.6
03/06:20am 14.3 11.5 3.4 48 5.2 S 7 9 4 5 1011.7 - 15.6
03/06:10am 13.6 10.5 3.4 50 4.8 S 9 15 5 8 1011.9 - 15.6
03/06:00am 13.4 10.4 4.2 53 4.4 SE 9 15 5 8 1011.6 - 15.6
03/05:50am 13.9 12.2 4.2 52 4.7 E 2 6 1 3 1011.6 - 15.6
03/05:40am 13.8 10.8 4.3 52 4.6 ENE 9 15 5 8 1011.4 - 15.6
03/05:30am 13.4 10.2 5.0 57 4.1 SSE 11 13 6 7 1011.4 - 15.6

Latest Capital City Observations: Canberra | Sydney | Melbourne | Brisbane | Adelaide | Perth | Hobart | Darwin

Other formats

Comma delimited format used in spreadsheet applications
http://www.bom.gov.au/fwo/IDN60903/IDN60903.99762.axf

JavaScript Object Notation format (JSON) in row-major order
http://www.bom.gov.au/fwo/IDN60903/IDN60903.99762.json

Data quality

Most of these data are generated automatically and are frequently updated. Quality checks on data are not normally performed. It is possible for incorrect values to appear. Refer to information at About Latest Weather Observations and please check the disclaimer before using these data.